Terminal Aerodrome Forecast
Issued by NWS Grand Junction, CO

Home | Current Version | Previous Version | Text Only | Print | Product List | Glossary On
Versions: 1 2 3 4 5 6 7 8 9 10 11 12 13 14 15 16 17
000
FTUS45 KGJT 291121
TAFGJT
TAF
KGJT 291121Z 2912/3012 12003KT P6SM SKC
     FM291600 32008KT P6SM FEW250
     FM291900 29010G19KT P6SM FEW250
     FM292100 28016G27KT P6SM FEW250
     FM300200 32012G20KT P6SM FEW250
     FM300500 01008KT P6SM FEW250=

USA.gov is the U.S. government's official web portal to all federal, state and local government web resources and services.